Nearby METAR Reports

 

KSJC - San Jose, California, USA
Distance from station: NE 9mi, 14km
Updated: 02/20/2018 5:53am
Clear
Clear
 Wind from calm
Wind: Calm
Temperature: 37°F , 3°C
Dew Point: 30°F , -1°C
Humidity: 75%
Barometer: 30.20 inHg , 1022.7 hPa
Clouds: Clear
Visibility: 10 miles , 16 km
2018/02/20 10:53 KSJC 201053Z AUTO 00000KT 10SM CLR 03/M01 A3020 RMK AO2 SLP225 T00331011
KNUQ - Moffett Nas/Mtn, California, USA
Distance from station: N 9mi, 14km
Updated: 02/20/2018 5:56am
Clear
Clear
 Wind from W
Wind: W 5 mph , 7 km/h
Temperature: 39°F , 4°C
Wind Chill: 35°F , 2°C
Dew Point: 28°F , -2°C
Humidity: 65%
Barometer: 30.20 inHg , 1022.7 hPa
Clouds: Clear
Visibility: 10 miles , 16 km
2018/02/20 10:56 KNUQ 201056Z 26004KT 10SM CLR 04/M02 A3020 RMK AO2 SLP229 T00441022
 
KPAO - Palo Alto, California, USA
Distance from station: NNW 14mi, 23km
Updated: 02/19/2018 11:47pm
NOT Current
Mostly cloudy
Mostly cloudy
 Wind from WNW
Wind: WNW 12 mph , 19 km/h
Clouds: Mostly cloudy
Visibility: 10 miles , 16 km
Cloud details: Mostly cloudy 6000 ft
2018/02/20 04:47 KPAO 200447Z 30010KT 10SM BKN060 --/-- A3010 RMK LAST
KRHV - San Jose/Reid, California, USA
Distance from station: ENE 12mi, 19km
Updated: 02/20/2018 12:52am
NOT Current
Partly cloudy
Partly cloudy
 Wind from calm
Wind: Calm
Temperature: 43°F , 6°C
Dew Point: 32°F , 0°C
Humidity: 66%
Barometer: 30.12 inHg , 1020 hPa
Clouds: Partly cloudy
Visibility: 10 miles , 16 km
Cloud details: Partly cloudy 4000 ft
2018/02/20 05:52 KRHV 200552Z 00000KT 10SM SCT040 06/00 A3012 RMK LAST
 
KOAK - Oakland, California, USA
Distance from station: NNW 31mi, 50km
Updated: 02/20/2018 5:53am
Clear
Clear
 Wind from N
Wind: N 5 mph , 7 km/h
Temperature: 37°F , 3°C
Wind Chill: 33°F , 1°C
Dew Point: 28°F , -2°C
Humidity: 70%
Barometer: 30.19 inHg , 1022.4 hPa
Clouds: Clear
Visibility: 10 miles , 16 km
2018/02/20 10:53 KOAK 201053Z 01004KT 10SM CLR 03/M02 A3019 RMK AO2 SLP224 T00331017
KSQL - San Carlos Airpo, California, USA
Distance from station: NW 21mi, 34km
Updated: 02/20/2018 5:55am
Clear
Clear
 Wind from calm
Wind: Calm
Temperature: 37°F , 3°C
Dew Point: 28°F , -2°C
Humidity: 70%
Barometer: 30.20 inHg , 1022.7 hPa
Clouds: Clear
Visibility: 10 miles , 16 km
2018/02/20 10:55 KSQL 201055Z AUTO 00000KT 10SM CLR 03/M02 A3020 RMK AO2
 
KSFO - San Francisco, California, USA
Distance from station: NW 30mi, 49km
Updated: 02/20/2018 5:56am
Clear
Clear
 Wind from calm
Wind: Calm
Temperature: 43°F , 6°C
Dew Point: 28°F , -2°C
Humidity: 57%
Barometer: 30.19 inHg , 1022.4 hPa
Clouds: Clear
Visibility: 10 miles , 16 km
2018/02/20 10:56 KSFO 201056Z 00000KT 10SM CLR 06/M02 A3019 RMK AO2 SLP223 T00611017 $
KE16 - San Martin, California, USA
Distance from station: ESE 27mi, 43km
Updated: 02/20/2018 5:55am
Clear
Clear
 Wind from NW
Wind: NW 5 mph , 7 km/h
Temperature: 36°F , 2°C
Wind Chill: 32°F , 0°C
Dew Point: 28°F , -2°C
Humidity: 75%
Barometer: 30.20 inHg , 1022.7 hPa
Clouds: Clear
Visibility: 10 miles , 16 km
2018/02/20 10:55 KE16 201055Z AUTO 32004KT 10SM CLR 02/M02 A3020 RMK AO2
 
KWVI - Watsonville, California, USA
Distance from station: SSE 27mi, 44km
Updated: 02/20/2018 5:53am
Clear
Clear
 Wind from NW
Wind: NW 3 mph , 6 km/h
Temperature: 34°F , 1°C
Dew Point: 28°F , -2°C
Humidity: 81%
Barometer: 30.19 inHg , 1022.4 hPa
Clouds: Clear
Visibility: 10 miles , 16 km
2018/02/20 10:53 KWVI 201053Z AUTO 31003KT 10SM CLR 01/M02 A3019 RMK AO2 SLP224 T00061022
KHAF - Half Moon Bay, California, USA
Distance from station: WNW 31mi, 50km
Updated: 02/20/2018 5:55am
Clear
Clear
 Wind from ESE
Wind: ESE 5 mph , 7 km/h
Temperature: 34°F , 1°C
Wind Chill: 29°F , -2°C
Dew Point: 28°F , -2°C
Humidity: 81%
Barometer: 30.16 inHg , 1021.3 hPa
Clouds: Clear
Visibility: 10 miles , 16 km
2018/02/20 10:55 KHAF 201055Z AUTO 12004KT 10SM CLR 01/M02 A3016 RMK AO2
 
KHWD - Hayward, California, USA
Distance from station: N 28mi, 44km
Updated: 02/20/2018 5:54am
Clear
Clear
 Wind from ENE
Wind: ENE 5 mph , 7 km/h
Temperature: 37°F , 3°C
Wind Chill: 33°F , 1°C
Dew Point: 25°F , -4°C
Humidity: 60%
Barometer: 30.19 inHg , 1022.4 hPa
Clouds: Clear
Visibility: 10 miles , 16 km
2018/02/20 10:54 KHWD 201054Z AUTO 06004KT 10SM CLR 03/M04 A3019 RMK AO2 SLP233 T00281039
KLVK - Livermore, California, USA
Distance from station: NNE 31mi, 51km
Updated: 02/20/2018 5:53am
Clear
Clear
 Wind from calm
Wind: Calm
Temperature: 30°F , -1°C
Dew Point: 25°F , -4°C
Humidity: 80%
Barometer: 30.18 inHg , 1022 hPa
Clouds: Clear
Visibility: 10 miles , 16 km
2018/02/20 10:53 KLVK 201053Z AUTO 00000KT 10SM CLR M01/M04 A3018 RMK AO2 SLP221 T10111039